createdAt,value
2019-02-24T00:02:03.507Z,8.30
2019-02-24T00:05:09.959Z,8.60
2019-02-24T00:08:16.851Z,7.45
2019-02-24T00:11:23.435Z,8.40
2019-02-24T00:14:29.758Z,8.57
2019-02-24T00:17:36.366Z,8.13
2019-02-24T00:20:42.840Z,8.00
2019-02-24T00:23:49.207Z,8.23
2019-02-24T00:26:55.600Z,8.50
2019-02-24T00:30:02.217Z,8.27
2019-02-24T00:33:08.733Z,7.93
2019-02-24T00:36:15.376Z,8.70
2019-02-24T00:39:21.680Z,8.13
2019-02-24T00:42:28.329Z,7.57
2019-02-24T00:45:34.767Z,8.70
2019-02-24T00:48:41.188Z,9.03
2019-02-24T00:51:47.450Z,9.30
2019-02-24T00:54:53.886Z,8.45
2019-02-24T00:58:01.278Z,8.60
2019-02-24T01:01:07.678Z,9.73
2019-02-24T01:04:14.215Z,9.70
2019-02-24T01:07:20.613Z,9.93
2019-02-24T01:10:29.053Z,10.20
2019-02-24T01:13:35.700Z,10.23
2019-02-24T01:16:43.072Z,9.93
2019-02-24T01:19:49.534Z,9.98
2019-02-24T01:22:55.877Z,10.00
2019-02-24T01:26:02.330Z,9.27
2019-02-24T01:29:08.738Z,9.07
2019-02-24T01:32:15.230Z,9.58
2019-02-24T01:35:21.614Z,11.00
2019-02-24T01:38:28.076Z,10.97
2019-02-24T01:41:34.490Z,10.53
2019-02-24T01:44:40.919Z,10.67
2019-02-24T01:47:47.279Z,10.50
2019-02-24T01:50:53.739Z,11.47
2019-02-24T01:54:00.090Z,10.63
2019-02-24T01:57:06.580Z,11.27
2019-02-24T02:00:13.136Z,9.67
2019-02-24T02:03:19.546Z,10.17
2019-02-24T02:06:26.002Z,10.70
2019-02-24T02:09:32.499Z,10.63
2019-02-24T02:12:39.108Z,11.13
2019-02-24T02:15:45.746Z,11.13
2019-02-24T02:18:52.090Z,11.83
2019-02-24T02:21:58.379Z,10.83
2019-02-24T02:25:04.991Z,11.10
2019-02-24T02:28:11.483Z,11.33
2019-02-24T02:31:17.816Z,10.43
2019-02-24T02:34:24.345Z,11.30
2019-02-24T02:37:30.740Z,11.63
2019-02-24T02:40:37.210Z,10.97
2019-02-24T02:43:43.622Z,11.33
2019-02-24T02:46:50.508Z,11.33
2019-02-24T02:49:56.844Z,11.53
2019-02-24T02:53:03.242Z,13.20
2019-02-24T02:56:09.606Z,11.80
2019-02-24T02:59:15.995Z,10.70
2019-02-24T03:02:24.657Z,12.68
2019-02-24T03:05:30.530Z,13.03
2019-02-24T03:08:51.977Z,12.23
2019-02-24T03:11:58.462Z,12.17
2019-02-24T03:15:05.465Z,12.53
2019-02-24T03:18:13.190Z,12.43
2019-02-24T03:21:19.487Z,12.80
2019-02-24T03:24:25.920Z,12.20
2019-02-24T03:27:32.374Z,12.47
2019-02-24T03:30:38.684Z,12.67
2019-02-24T03:33:45.303Z,12.93
2019-02-24T03:36:51.698Z,12.57
2019-02-24T03:39:58.064Z,13.57
2019-02-24T03:43:04.374Z,14.53
2019-02-24T03:46:10.761Z,13.17
2019-02-24T03:49:17.207Z,12.30
2019-02-24T03:52:23.669Z,13.93
2019-02-24T03:55:30.093Z,13.73
2019-02-24T03:58:36.440Z,13.00
2019-02-24T04:01:42.735Z,12.43
2019-02-24T04:04:49.120Z,13.83
2019-02-24T04:07:55.478Z,13.40
2019-02-24T04:11:01.736Z,13.93
2019-02-24T04:14:08.120Z,14.63
2019-02-24T04:17:14.952Z,12.65
2019-02-24T04:20:21.771Z,14.70
2019-02-24T04:23:28.056Z,14.10
2019-02-24T04:26:35.430Z,13.13
2019-02-24T04:29:41.777Z,13.97
2019-02-24T04:32:48.234Z,13.80
2019-02-24T04:35:54.701Z,13.67
2019-02-24T04:39:01.173Z,12.50
2019-02-24T04:42:09.381Z,11.55
2019-02-24T04:45:15.679Z,14.83
2019-02-24T04:48:22.053Z,14.70
2019-02-24T04:51:28.573Z,13.00
2019-02-24T04:54:34.904Z,13.73
2019-02-24T04:57:41.820Z,13.23
2019-02-24T05:00:48.195Z,13.37
2019-02-24T05:03:54.561Z,14.37
2019-02-24T05:07:00.826Z,13.93
2019-02-24T05:10:07.365Z,14.20
2019-02-24T05:13:13.695Z,13.33
2019-02-24T05:16:20.050Z,13.57
2019-02-24T05:19:27.269Z,13.20
2019-02-24T05:22:33.820Z,14.77
2019-02-24T05:25:40.175Z,14.83
2019-02-24T05:28:46.564Z,15.40
2019-02-24T05:31:53.895Z,14.93
2019-02-24T05:35:00.336Z,13.83
2019-02-24T05:38:06.694Z,14.53
2019-02-24T05:41:13.101Z,14.07
2019-02-24T05:44:19.390Z,14.53
2019-02-24T05:47:25.757Z,16.70
2019-02-24T05:50:32.109Z,15.93
2019-02-24T05:53:38.897Z,15.37
2019-02-24T05:56:45.366Z,16.60
2019-02-24T05:59:55.275Z,15.43
2019-02-24T06:02:59.846Z,15.50
2019-02-24T06:06:06.123Z,16.80
2019-02-24T06:09:12.509Z,18.33
2019-02-24T06:12:19.243Z,19.32
2019-02-24T06:15:26.626Z,17.70
2019-02-24T06:18:33.003Z,18.00
2019-02-24T06:21:39.652Z,18.17
2019-02-24T06:24:46.146Z,15.78
2019-02-24T06:27:52.456Z,20.23
2019-02-24T06:30:58.942Z,16.07
2019-02-24T06:34:05.350Z,18.60
2019-02-24T06:37:11.844Z,16.63
2019-02-24T06:40:18.351Z,18.50
2019-02-24T06:43:24.899Z,16.57
2019-02-24T06:46:31.416Z,17.43
2019-02-24T06:49:38.008Z,16.97
2019-02-24T06:52:44.363Z,17.63
2019-02-24T06:55:50.748Z,19.57
2019-02-24T06:58:57.229Z,18.13
2019-02-24T07:02:03.608Z,15.17
2019-02-24T07:05:09.903Z,18.13
2019-02-24T07:08:16.862Z,18.07
2019-02-24T07:11:23.322Z,19.75
2019-02-24T07:14:29.852Z,18.90
2019-02-24T07:17:36.255Z,19.60
2019-02-24T07:20:42.561Z,19.00
2019-02-24T07:23:49.044Z,20.50
2019-02-24T07:26:55.688Z,19.63
2019-02-24T07:30:02.122Z,20.43
2019-02-24T07:33:08.551Z,20.17
2019-02-24T07:36:15.043Z,20.17
2019-02-24T07:39:21.396Z,21.47
2019-02-24T07:42:27.917Z,18.27
2019-02-24T07:45:34.474Z,19.67
2019-02-24T07:48:46.647Z,18.40
2019-02-24T07:51:53.394Z,20.00
2019-02-24T07:54:59.877Z,20.37
2019-02-24T07:58:06.385Z,20.20
2019-02-24T08:01:12.800Z,19.97
2019-02-24T08:04:19.375Z,20.17
2019-02-24T08:07:25.824Z,18.45
2019-02-24T08:10:32.285Z,18.63
2019-02-24T08:13:38.693Z,19.43
2019-02-24T08:16:45.194Z,17.90
2019-02-24T08:19:51.730Z,19.20
2019-02-24T08:22:58.494Z,20.43
2019-02-24T08:26:06.352Z,19.70
2019-02-24T08:29:17.662Z,20.07
2019-02-24T08:32:25.464Z,19.20
2019-02-24T08:35:41.172Z,18.37
2019-02-24T08:38:47.603Z,18.77
2019-02-24T08:41:54.052Z,17.93
2019-02-24T08:45:00.545Z,17.60
2019-02-24T08:48:06.823Z,18.00
2019-02-24T08:51:13.204Z,16.60
2019-02-24T08:54:19.719Z,16.93
2019-02-24T08:57:26.160Z,15.50
2019-02-24T09:00:32.584Z,14.73
2019-02-24T09:03:39.485Z,12.73
2019-02-24T09:06:45.963Z,14.73
2019-02-24T09:09:52.426Z,16.00
2019-02-24T09:12:58.908Z,15.17
2019-02-24T09:16:05.306Z,15.97
2019-02-24T09:19:11.638Z,15.03
2019-02-24T09:22:18.078Z,14.35
2019-02-24T09:25:24.481Z,14.40
2019-02-24T09:28:31.500Z,13.70
2019-02-24T09:31:38.506Z,14.03
2019-02-24T09:34:45.860Z,13.60
2019-02-24T09:37:52.229Z,12.90
2019-02-24T09:40:58.482Z,13.37
2019-02-24T09:44:05.174Z,12.93
2019-02-24T09:47:11.514Z,12.83
2019-02-24T09:50:18.284Z,12.27
2019-02-24T09:53:24.650Z,12.00
2019-02-24T09:56:30.998Z,13.00
2019-02-24T09:59:37.419Z,10.23
2019-02-24T10:02:43.920Z,12.47
2019-02-24T10:05:52.873Z,12.13
2019-02-24T10:09:01.866Z,12.80
2019-02-24T10:12:11.386Z,10.47
2019-02-24T10:15:18.002Z,11.77
2019-02-24T10:18:27.149Z,12.00
2019-02-24T10:21:40.416Z,12.20
2019-02-24T10:24:47.020Z,13.05
2019-02-24T10:27:53.486Z,13.27
2019-02-24T10:31:01.531Z,10.67
2019-02-24T10:34:10.590Z,12.57
2019-02-24T10:37:17.118Z,12.43
2019-02-24T10:40:23.701Z,11.57
2019-02-24T10:43:30.045Z,11.33
2019-02-24T10:46:36.476Z,11.60
2019-02-24T10:49:43.116Z,8.23
2019-02-24T10:52:49.516Z,11.43
2019-02-24T10:55:55.867Z,11.53
2019-02-24T10:59:02.735Z,10.63
2019-02-24T11:02:09.320Z,11.20
2019-02-24T11:05:16.159Z,9.93
2019-02-24T11:08:23.153Z,10.17
2019-02-24T11:11:29.640Z,11.03
2019-02-24T11:14:35.977Z,10.53
2019-02-24T11:17:42.367Z,9.87
2019-02-24T11:21:05.209Z,8.73
2019-02-24T11:24:15.294Z,9.50
2019-02-24T11:27:23.889Z,9.93
2019-02-24T11:30:30.260Z,9.87
2019-02-24T11:33:36.909Z,10.17
2019-02-24T11:36:43.377Z,9.37
2019-02-24T11:39:50.328Z,9.33
2019-02-24T11:42:56.939Z,9.27
2019-02-24T11:46:03.496Z,8.53
2019-02-24T11:49:09.812Z,8.90
2019-02-24T11:52:16.319Z,8.00
2019-02-24T11:55:22.583Z,8.40
2019-02-24T11:58:29.075Z,7.60
2019-02-24T12:01:35.442Z,8.03
2019-02-24T12:04:41.911Z,7.77
2019-02-24T12:07:48.213Z,7.30
2019-02-24T12:10:55.054Z,6.80
2019-02-24T12:14:01.489Z,7.10
2019-02-24T12:17:08.228Z,6.77
2019-02-24T12:20:14.621Z,7.10
2019-02-24T12:23:21.316Z,6.40
2019-02-24T12:26:27.820Z,6.47
2019-02-24T12:29:34.259Z,6.53
2019-02-24T12:32:41.690Z,6.57
2019-02-24T12:35:48.180Z,6.17
2019-02-24T12:38:54.452Z,5.70
2019-02-24T12:42:00.782Z,5.97
2019-02-24T12:45:07.309Z,7.03
2019-02-24T12:48:13.811Z,5.70
2019-02-24T12:51:20.397Z,5.85
2019-02-24T12:54:27.885Z,6.10
2019-02-24T12:57:36.655Z,5.60
2019-02-24T13:00:43.380Z,6.10
2019-02-24T13:03:49.662Z,5.43
2019-02-24T13:06:57.535Z,5.47
2019-02-24T13:10:04.313Z,5.70
2019-02-24T13:13:10.885Z,5.53
2019-02-24T13:16:17.622Z,5.83
2019-02-24T13:19:24.017Z,5.70
2019-02-24T13:22:30.395Z,5.30
2019-02-24T13:25:36.904Z,5.30
2019-02-24T13:28:50.377Z,6.10
2019-02-24T13:31:51.415Z,5.60
2019-02-24T13:34:57.878Z,4.70
2019-02-24T13:38:04.648Z,5.00
2019-02-24T13:41:10.895Z,5.40
2019-02-24T13:44:17.526Z,4.57
2019-02-24T13:47:23.892Z,5.35
2019-02-24T13:50:30.320Z,5.50
2019-02-24T13:53:38.125Z,5.20
2019-02-24T13:56:45.751Z,5.23
2019-02-24T13:59:52.203Z,5.00
2019-02-24T14:02:58.998Z,4.40
2019-02-24T14:06:05.274Z,4.80
2019-02-24T14:09:11.672Z,4.73
2019-02-24T14:12:18.005Z,4.22
2019-02-24T14:15:25.085Z,4.50
2019-02-24T14:18:31.886Z,4.83
2019-02-24T14:21:38.410Z,4.33
2019-02-24T14:24:44.839Z,4.15
2019-02-24T14:27:51.283Z,4.10
2019-02-24T14:30:57.620Z,4.20
2019-02-24T14:34:04.174Z,4.40
2019-02-24T14:37:10.426Z,4.17
2019-02-24T14:40:17.094Z,4.30
2019-02-24T14:43:23.536Z,3.70
2019-02-24T14:46:29.862Z,3.87
2019-02-24T14:49:36.362Z,4.50
2019-02-24T14:52:42.774Z,3.83
2019-02-24T14:55:49.269Z,4.13
2019-02-24T14:58:55.798Z,4.20
2019-02-24T15:02:02.168Z,3.83
2019-02-24T15:05:09.399Z,3.67
2019-02-24T15:08:15.720Z,4.10
2019-02-24T15:11:22.172Z,4.20
2019-02-24T15:14:29.589Z,3.60
2019-02-24T15:17:36.523Z,4.07
2019-02-24T15:20:42.966Z,3.90
2019-02-24T15:23:49.391Z,4.10
2019-02-24T15:26:55.772Z,4.13
2019-02-24T15:30:04.711Z,4.03
2019-02-24T15:33:11.211Z,4.10
2019-02-24T15:36:18.077Z,4.20
2019-02-24T15:39:28.707Z,3.93
2019-02-24T15:42:35.399Z,3.70
2019-02-24T15:45:41.658Z,4.03
2019-02-24T15:48:48.116Z,4.17
2019-02-24T15:51:54.460Z,4.20
2019-02-24T15:55:00.949Z,4.17
2019-02-24T15:58:07.444Z,3.77
2019-02-24T16:01:13.860Z,3.47
2019-02-24T16:04:20.305Z,4.12
2019-02-24T16:07:26.684Z,3.67
2019-02-24T16:10:33.022Z,3.90
2019-02-24T16:13:39.703Z,3.40
2019-02-24T16:16:45.979Z,3.40
2019-02-24T16:19:52.770Z,3.40
2019-02-24T16:22:59.420Z,3.50
2019-02-24T16:26:05.809Z,3.90
2019-02-24T16:29:12.071Z,4.27
2019-02-24T16:32:18.611Z,4.12
2019-02-24T16:35:24.964Z,4.00
2019-02-24T16:38:31.516Z,4.00
2019-02-24T16:41:37.853Z,4.23
2019-02-24T16:44:44.374Z,3.93
2019-02-24T16:47:50.702Z,4.43
2019-02-24T16:50:57.126Z,4.30
2019-02-24T16:54:03.486Z,4.43
2019-02-24T16:57:10.148Z,4.37
2019-02-24T17:00:18.080Z,4.83
2019-02-24T17:03:24.443Z,4.20
2019-02-24T17:06:30.744Z,4.33
2019-02-24T17:09:37.297Z,4.87
2019-02-24T17:12:43.581Z,4.87
2019-02-24T17:15:50.053Z,4.50
2019-02-24T17:18:56.403Z,4.40
2019-02-24T17:22:03.286Z,4.87
2019-02-24T17:25:10.156Z,4.57
2019-02-24T17:28:16.742Z,4.53
2019-02-24T17:31:28.311Z,4.40
2019-02-24T17:34:31.197Z,4.55
2019-02-24T17:37:37.542Z,4.67
2019-02-24T17:40:43.898Z,4.70
2019-02-24T17:43:50.263Z,4.60
2019-02-24T17:46:56.849Z,4.60
2019-02-24T17:50:03.109Z,4.60
2019-02-24T17:53:09.662Z,4.57
2019-02-24T17:56:16.043Z,4.57
2019-02-24T17:59:22.567Z,4.30
2019-02-24T18:02:28.863Z,4.23
2019-02-24T18:05:35.349Z,4.40
2019-02-24T18:08:41.808Z,4.70
2019-02-24T18:11:48.435Z,4.57
2019-02-24T18:14:54.935Z,4.12
2019-02-24T18:18:01.369Z,4.43
2019-02-24T18:21:07.785Z,4.83
2019-02-24T18:24:16.129Z,4.70
2019-02-24T18:27:23.831Z,4.08
2019-02-24T18:30:30.446Z,5.00
2019-02-24T18:33:36.885Z,4.07
2019-02-24T18:36:43.263Z,4.30
2019-02-24T18:39:50.834Z,4.33
2019-02-24T18:43:00.481Z,3.80
2019-02-24T18:46:06.980Z,4.20
2019-02-24T18:49:13.531Z,4.10
2019-02-24T18:52:20.032Z,3.72
2019-02-24T18:55:26.378Z,4.00
2019-02-24T18:58:35.122Z,3.83
2019-02-24T19:01:41.937Z,3.97
2019-02-24T19:04:48.531Z,3.67
2019-02-24T19:07:55.438Z,3.60
2019-02-24T19:11:01.891Z,3.73
2019-02-24T19:14:08.370Z,4.07
2019-02-24T19:17:15.014Z,4.20
2019-02-24T19:20:22.615Z,3.87
2019-02-24T19:23:29.186Z,4.13
2019-02-24T19:26:36.092Z,4.37
2019-02-24T19:29:42.953Z,3.90
2019-02-24T19:32:49.704Z,4.07
2019-02-24T19:35:57.933Z,3.70
2019-02-24T19:39:05.055Z,3.90
2019-02-24T19:42:13.061Z,3.70
2019-02-24T19:45:19.525Z,3.50
2019-02-24T19:48:26.564Z,3.70
2019-02-24T19:51:33.073Z,3.13
2019-02-24T19:54:39.330Z,3.50
2019-02-24T19:57:46.882Z,3.53
2019-02-24T20:00:54.749Z,3.87
2019-02-24T20:04:01.368Z,3.17
2019-02-24T20:07:07.713Z,3.30
2019-02-24T20:10:15.576Z,3.50
2019-02-24T20:13:22.063Z,3.43
2019-02-24T20:16:28.549Z,3.67
2019-02-24T20:19:34.978Z,3.73
2019-02-24T20:22:41.377Z,3.30
2019-02-24T20:25:47.724Z,3.13
2019-02-24T20:28:54.493Z,3.60
2019-02-24T20:32:02.259Z,3.33
2019-02-24T20:35:09.043Z,3.33
2019-02-24T20:38:15.508Z,3.57
2019-02-24T20:41:21.910Z,3.67
2019-02-24T20:44:28.287Z,3.27
2019-02-24T20:47:34.726Z,3.50
2019-02-24T20:50:41.108Z,3.03
2019-02-24T20:53:47.715Z,4.13
2019-02-24T20:56:54.096Z,3.20
2019-02-24T21:00:00.537Z,3.20
2019-02-24T21:03:08.548Z,3.00
2019-02-24T21:06:15.221Z,3.40
2019-02-24T21:09:21.572Z,3.30
2019-02-24T21:12:27.884Z,3.47
2019-02-24T21:15:34.230Z,3.60
2019-02-24T21:18:40.844Z,3.43
2019-02-24T21:21:47.223Z,3.57
2019-02-24T21:24:53.750Z,2.60
2019-02-24T21:28:00.171Z,3.60
2019-02-24T21:31:07.159Z,3.50
2019-02-24T21:34:13.798Z,3.23
2019-02-24T21:37:20.124Z,3.27
2019-02-24T21:40:26.480Z,3.33
2019-02-24T21:43:33.013Z,3.20
2019-02-24T21:46:39.362Z,3.47
2019-02-24T21:49:46.129Z,3.12
2019-02-24T21:52:52.498Z,3.07
2019-02-24T21:55:59.014Z,2.80
2019-02-24T21:59:05.378Z,3.03
2019-02-24T22:02:11.810Z,3.03
2019-02-24T22:05:18.349Z,2.97
2019-02-24T22:08:24.836Z,2.87
2019-02-24T22:11:31.250Z,3.00
2019-02-24T22:14:37.799Z,2.93
2019-02-24T22:17:44.223Z,3.07
2019-02-24T22:20:50.674Z,2.70
2019-02-24T22:23:56.929Z,2.50
2019-02-24T22:27:09.436Z,2.60
2019-02-24T22:30:20.688Z,3.10
2019-02-24T22:33:27.346Z,2.50
2019-02-24T22:36:33.795Z,2.70
2019-02-24T22:39:40.041Z,2.53
2019-02-24T22:42:47.641Z,2.50
2019-02-24T22:45:54.077Z,2.70
2019-02-24T22:49:00.410Z,2.27
2019-02-24T22:52:06.789Z,2.63
2019-02-24T22:55:13.225Z,2.43
2019-02-24T22:58:19.735Z,2.53
2019-02-24T23:01:32.552Z,2.50
2019-02-24T23:04:40.389Z,2.60
2019-02-24T23:07:49.828Z,2.50
2019-02-24T23:10:57.817Z,2.40
2019-02-24T23:14:04.171Z,2.50
2019-02-24T23:17:10.603Z,2.60
2019-02-24T23:20:16.982Z,2.80
2019-02-24T23:23:23.309Z,2.60
2019-02-24T23:26:29.655Z,2.50
2019-02-24T23:29:36.229Z,3.22
2019-02-24T23:32:42.554Z,2.87
2019-02-24T23:35:49.342Z,2.57
2019-02-24T23:38:55.855Z,2.83
2019-02-24T23:42:02.231Z,2.80
2019-02-24T23:45:10.597Z,3.10
2019-02-24T23:48:17.155Z,3.00
2019-02-24T23:51:23.499Z,2.63
2019-02-24T23:54:29.750Z,3.20
2019-02-24T23:57:36.093Z,3.07
